Time;durP1;ratioP1;P1;durP2;ratioP2;P2;SDS_P1;SDS_P2;PMS_P1;PMS_P2;Temp;Humidity;BMP_temperature;BMP_pressure;BME280_temperature;BME280_humidity;BME280_pressure;Samples;Min_cycle;Max_cycle;Signal;HPM_P1;HPM_P2
2023/10/05 00:01:56;;;;;;;;;;;;;;;;;;5114031;28;19923;-68
2023/10/05 00:04:24;;;;;;;;;;;;;;;;;;5113759;28;19964;-68
2023/10/05 00:06:53;;;;;;;;;;;;;;;;;;5113567;28;20436;-68
2023/10/05 00:09:19;;;;;;;;;;;;;;;;;;5113798;28;19916;-68
2023/10/05 00:11:44;;;;;;;;;;;;;;;;;;5113621;28;20291;-68
2023/10/05 00:14:10;;;;;;;;;;;;;;;;;;5114508;28;19915;-68
2023/10/05 00:16:38;;;;;;;;;;;;;;;;;;5117405;28;19916;-68
2023/10/05 00:19:12;;;;;;;;;;;;;;;;;;5118305;28;19972;-67
2023/10/05 00:21:40;;;;;;;;;;;;;;;;;;5115582;28;19998;-67
2023/10/05 00:24:08;;;;;;;;;;;;;;;;;;5115653;28;19912;-67
2023/10/05 00:26:34;;;;;;;;;;;;;;;;;;5115453;28;19915;-67
2023/10/05 00:32:00;;;;;;;;;;;;;;;;;;5072659;28;19917;-67
2023/10/05 00:34:29;;;;;;;;;;;;;;;;;;5106338;28;20393;-68
2023/10/05 00:36:58;;;;;;;;;;;;;;;;;;5115451;28;19911;-68
2023/10/05 00:39:24;;;;;;;;;;;;;;;;;;5097086;28;19920;-69
2023/10/05 00:41:58;;;;;;;;;;;;;;;;;;5097124;28;19912;-68
2023/10/05 00:44:23;;;;;;;;;;;;;;;;;;5115236;28;20003;-68
2023/10/05 00:46:49;;;;;;;;;;;;;;;;;;5096684;28;19966;-68
2023/10/05 00:49:19;;;;;;;;;;;;;;;;;;5096378;28;19912;-68
2023/10/05 00:54:50;;;;;;;;;;;;;;;;;;5091689;28;20070;-67
2023/10/05 00:57:19;;;;;;;;;;;;;;;;;;5115103;28;19916;-68
2023/10/05 00:59:46;;;;;;;;;;;;;;;;;;5096737;28;19951;-68
2023/10/05 01:02:15;;;;;;;;;;;;;;;;;;5114844;28;19941;-68
2023/10/05 01:07:18;;;;;;;;;;;;;;;;;;5114843;28;19915;-68
2023/10/05 01:14:53;;;;;;;;;;;;;;;;;;5114613;28;19941;-68
2023/10/05 01:17:20;;;;;;;;;;;;;;;;;;5114521;28;19962;-68
2023/10/05 01:19:46;;;;;;;;;;;;;;;;;;5114517;28;19928;-68
2023/10/05 01:22:14;;;;;;;;;;;;;;;;;;5114578;28;20413;-69
2023/10/05 01:24:41;;;;;;;;;;;;;;;;;;5096435;28;20024;-68
2023/10/05 01:27:06;;;;;;;;;;;;;;;;;;5096359;28;20367;-68
2023/10/05 01:29:32;;;;;;;;;;;;;;;;;;5113585;28;19965;-68
2023/10/05 01:31:58;;;;;;;;;;;;;;;;;;5094583;28;19920;-68
2023/10/05 01:34:24;;;;;;;;;;;;;;;;;;5111940;28;20375;-68
2023/10/05 01:36:49;;;;;;;;;;;;;;;;;;5112214;28;19912;-69
2023/10/05 01:39:18;;;;;;;;;;;;;;;;;;5112153;28;19931;-68
2023/10/05 01:41:46;;;;;;;;;;;;;;;;;;5112079;28;19970;-68
2023/10/05 01:44:13;;;;;;;;;;;;;;;;;;5111990;28;19915;-68
2023/10/05 01:46:39;;;;;;;;;;;;;;;;;;5112109;28;19930;-69
2023/10/05 01:49:04;;;;;;;;;;;;;;;;;;5113869;28;19915;-68
2023/10/05 01:51:30;;;;;;;;;;;;;;;;;;5114288;28;19918;-68
2023/10/05 01:54:11;;;;;;;;;;;;;;;;;;5114267;28;19916;-68
2023/10/05 01:56:37;;;;;;;;;;;;;;;;;;5095815;28;19973;-68
2023/10/05 01:59:06;;;;;;;;;;;;;;;;;;5095423;28;20010;-68
2023/10/05 02:01:34;;;;;;;;;;;;;;;;;;5095516;28;19923;-69
2023/10/05 02:04:00;;;;;;;;;;;;;;;;;;5113994;28;19916;-68
2023/10/05 02:06:28;;;;;;;;;;;;;;;;;;5095613;28;19923;-68
2023/10/05 02:08:54;;;;;;;;;;;;;;;;;;5095509;28;19922;-68
2023/10/05 02:11:24;;;;;;;;;;;;;;;;;;5112368;28;19927;-68
2023/10/05 02:13:49;;;;;;;;;;;;;;;;;;5095850;28;19916;-68
2023/10/05 02:16:18;;;;;;;;;;;;;;;;;;5095925;28;19961;-68
2023/10/05 02:18:44;;;;;;;;;;;;;;;;;;5113951;28;19920;-68
2023/10/05 02:21:17;;;;;;;;;;;;;;;;;;5113873;28;19959;-68
2023/10/05 02:23:44;;;;;;;;;;;;;;;;;;5095632;28;20367;-68
2023/10/05 02:26:33;;;;;;;;;;;;;;;;;;5113572;28;19915;-68
2023/10/05 02:28:58;;;;;;;;;;;;;;;;;;5114080;28;19920;-68
2023/10/05 02:31:28;;;;;;;;;;;;;;;;;;5112669;28;19923;-68
2023/10/05 02:33:54;;;;;;;;;;;;;;;;;;5113454;28;20430;-67
2023/10/05 02:36:30;;;;;;;;;;;;;;;;;;5095360;28;20032;-68
2023/10/05 02:38:56;;;;;;;;;;;;;;;;;;5113306;28;19928;-68
2023/10/05 02:41:30;;;;;;;;;;;;;;;;;;5113491;28;19916;-68
2023/10/05 02:43:58;;;;;;;;;;;;;;;;;;5095549;28;19915;-68
2023/10/05 02:46:24;;;;;;;;;;;;;;;;;;5095146;28;19918;-68
2023/10/05 02:48:50;;;;;;;;;;;;;;;;;;5095091;28;19951;-67
2023/10/05 02:51:18;;;;;;;;;;;;;;;;;;5095024;28;20099;-68
2023/10/05 02:53:47;;;;;;;;;;;;;;;;;;5111963;28;19962;-68
2023/10/05 02:56:13;;;;;;;;;;;;;;;;;;5112018;28;19923;-68
2023/10/05 02:58:38;;;;;;;;;;;;;;;;;;5095129;28;19920;-68
2023/10/05 03:01:07;;;;;;;;;;;;;;;;;;5095324;28;19916;-69
2023/10/05 03:03:33;;;;;;;;;;;;;;;;;;5095483;28;20049;-68
2023/10/05 03:05:59;;;;;;;;;;;;;;;;;;5070446;28;19970;-68
2023/10/05 03:08:29;;;;;;;;;;;;;;;;;;5088992;28;19920;-68
2023/10/05 03:10:55;;;;;;;;;;;;;;;;;;5071288;28;20386;-69
2023/10/05 03:13:21;;;;;;;;;;;;;;;;;;5092558;28;19916;-69
2023/10/05 03:15:47;;;;;;;;;;;;;;;;;;5092304;28;19972;-69
2023/10/05 03:18:15;;;;;;;;;;;;;;;;;;5075149;28;20429;-68
2023/10/05 03:20:40;;;;;;;;;;;;;;;;;;5093936;28;19955;-69
2023/10/05 03:23:06;;;;;;;;;;;;;;;;;;5094252;28;20016;-67
2023/10/05 03:25:33;;;;;;;;;;;;;;;;;;5112454;28;19982;-69
2023/10/05 03:27:59;;;;;;;;;;;;;;;;;;5112598;28;19920;-68
2023/10/05 03:30:30;;;;;;;;;;;;;;;;;;5092540;28;20585;-68
2023/10/05 03:33:00;;;;;;;;;;;;;;;;;;5109652;28;19915;-69
2023/10/05 03:35:26;;;;;;;;;;;;;;;;;;5091901;28;19923;-69
2023/10/05 03:37:54;;;;;;;;;;;;;;;;;;5091931;28;19916;-69
2023/10/05 03:40:24;;;;;;;;;;;;;;;;;;5092208;28;20175;-69
2023/10/05 03:42:57;;;;;;;;;;;;;;;;;;5092043;28;19965;-68
2023/10/05 03:45:24;;;;;;;;;;;;;;;;;;5091850;28;20382;-68
2023/10/05 03:47:50;;;;;;;;;;;;;;;;;;5110923;28;19930;-67
2023/10/05 03:50:21;;;;;;;;;;;;;;;;;;5111945;28;19924;-69
2023/10/05 03:52:49;;;;;;;;;;;;;;;;;;5093812;28;19930;-68
2023/10/05 03:55:19;;;;;;;;;;;;;;;;;;5093785;28;19916;-68
2023/10/05 03:57:46;;;;;;;;;;;;;;;;;;5093619;28;19927;-67
2023/10/05 04:00:23;;;;;;;;;;;;;;;;;;5093663;28;19916;-69
2023/10/05 04:02:48;;;;;;;;;;;;;;;;;;5093575;28;20375;-68
2023/10/05 04:05:18;;;;;;;;;;;;;;;;;;5111906;28;19916;-72
2023/10/05 04:07:43;;;;;;;;;;;;;;;;;;5093732;28;19915;-72
2023/10/05 04:10:13;;;;;;;;;;;;;;;;;;5111803;28;20375;-71
2023/10/05 04:12:40;;;;;;;;;;;;;;;;;;5113477;28;20379;-72
2023/10/05 04:15:08;;;;;;;;;;;;;;;;;;5096147;28;20331;-71
2023/10/05 04:17:34;;;;;;;;;;;;;;;;;;5113633;28;20633;-70
2023/10/05 04:19:59;;;;;;;;;;;;;;;;;;5111585;28;20038;-70
2023/10/05 04:22:24;;;;;;;;;;;;;;;;;;5111187;28;19960;-70
2023/10/05 04:24:50;;;;;;;;;;;;;;;;;;5111610;28;19916;-72
2023/10/05 04:27:18;;;;;;;;;;;;;;;;;;5093100;28;20014;-72
2023/10/05 04:29:43;;;;;;;;;;;;;;;;;;5111592;28;19911;-70
2023/10/05 04:32:12;;;;;;;;;;;;;;;;;;5111461;28;19972;-70
2023/10/05 04:34:37;;;;;;;;;;;;;;;;;;5111349;28;19927;-71
2023/10/05 04:37:03;;;;;;;;;;;;;;;;;;5111117;28;20371;-72
2023/10/05 04:39:30;;;;;;;;;;;;;;;;;;5111609;28;20367;-71
2023/10/05 04:41:56;;;;;;;;;;;;;;;;;;5110797;28;19995;-71
2023/10/05 04:44:22;;;;;;;;;;;;;;;;;;5092455;28;20287;-71
2023/10/05 04:46:47;;;;;;;;;;;;;;;;;;5111169;28;19915;-72
2023/10/05 04:49:12;;;;;;;;;;;;;;;;;;5110876;28;19969;-73
2023/10/05 04:51:39;;;;;;;;;;;;;;;;;;5111182;28;19916;-72
2023/10/05 04:54:04;;;;;;;;;;;;;;;;;;5110961;28;19920;-73
2023/10/05 05:01:56;;;;;;;;;;;;;;;;;;5101824;28;20325;-71
2023/10/05 05:07:09;;;;;;;;;;;;;;;;;;5115582;28;20391;-70
2023/10/05 05:09:34;;;;;;;;;;;;;;;;;;5114446;28;20383;-72
2023/10/05 05:12:03;;;;;;;;;;;;;;;;;;5075969;28;19916;-70
2023/10/05 05:14:29;;;;;;;;;;;;;;;;;;5110118;28;19959;-71
2023/10/05 05:16:58;;;;;;;;;;;;;;;;;;5110550;28;19966;-72
2023/10/05 05:19:23;;;;;;;;;;;;;;;;;;5110121;28;19919;-71
2023/10/05 05:21:49;;;;;;;;;;;;;;;;;;5104586;28;19916;-72
2023/10/05 05:24:14;;;;;;;;;;;;;;;;;;5109803;28;19916;-72
2023/10/05 05:26:39;;;;;;;;;;;;;;;;;;5081986;28;19920;-70
2023/10/05 05:29:05;;;;;;;;;;;;;;;;;;5088571;28;20372;-71
2023/10/05 05:31:30;;;;;;;;;;;;;;;;;;5097574;28;19915;-70
2023/10/05 05:33:56;;;;;;;;;;;;;;;;;;5099000;28;19951;-71
2023/10/05 05:36:21;;;;;;;;;;;;;;;;;;5089812;28;19916;-70
2023/10/05 05:38:50;;;;;;;;;;;;;;;;;;5071517;28;20387;-70
2023/10/05 05:41:16;;;;;;;;;;;;;;;;;;5089918;28;19927;-71
2023/10/05 05:43:41;;;;;;;;;;;;;;;;;;5090350;28;19912;-71
2023/10/05 05:46:11;;;;;;;;;;;;;;;;;;5090155;28;19961;-71
2023/10/05 05:48:36;;;;;;;;;;;;;;;;;;5089451;28;19927;-72
2023/10/05 05:51:10;;;;;;;;;;;;;;;;;;5099467;28;20291;-71
2023/10/05 05:53:37;;;;;;;;;;;;;;;;;;5094712;28;19925;-72
2023/10/05 05:56:03;;;;;;;;;;;;;;;;;;5089699;28;19912;-71
2023/10/05 05:58:28;;;;;;;;;;;;;;;;;;5089521;28;19920;-72
2023/10/05 06:00:55;;;;;;;;;;;;;;;;;;5090479;28;19938;-72
2023/10/05 06:03:20;;;;;;;;;;;;;;;;;;5102139;28;19919;-71
2023/10/05 06:05:48;;;;;;;;;;;;;;;;;;5098538;28;19919;-71
2023/10/05 06:08:13;;;;;;;;;;;;;;;;;;5089621;28;19916;-71
2023/10/05 06:10:42;;;;;;;;;;;;;;;;;;5090957;28;20353;-72
2023/10/05 06:13:11;;;;;;;;;;;;;;;;;;5072916;28;20182;-74
2023/10/05 06:15:36;;;;;;;;;;;;;;;;;;5072184;28;19970;-73
2023/10/05 06:18:02;;;;;;;;;;;;;;;;;;5089404;28;19916;-73
2023/10/05 06:20:27;;;;;;;;;;;;;;;;;;5090090;28;19916;-73
2023/10/05 06:22:53;;;;;;;;;;;;;;;;;;5091347;28;19945;-72
2023/10/05 06:25:18;;;;;;;;;;;;;;;;;;5109225;28;19994;-72
2023/10/05 06:27:44;;;;;;;;;;;;;;;;;;5081680;28;19926;-72
2023/10/05 06:30:09;;;;;;;;;;;;;;;;;;5109337;28;20291;-72
2023/10/05 06:32:34;;;;;;;;;;;;;;;;;;5109347;28;19916;-73
2023/10/05 06:35:00;;;;;;;;;;;;;;;;;;5109957;28;19916;-73
2023/10/05 06:37:25;;;;;;;;;;;;;;;;;;5109490;28;19923;-73
2023/10/05 06:39:51;;;;;;;;;;;;;;;;;;5109594;28;19966;-71
2023/10/05 06:42:17;;;;;;;;;;;;;;;;;;5108655;28;19926;-73
2023/10/05 06:44:44;;;;;;;;;;;;;;;;;;5108836;28;20444;-72
2023/10/05 06:47:18;;;;;;;;;;;;;;;;;;5111708;28;20007;-71
2023/10/05 06:49:44;;;;;;;;;;;;;;;;;;5112825;28;19923;-72
2023/10/05 06:52:09;;;;;;;;;;;;;;;;;;5113083;28;19915;-73
2023/10/05 06:54:35;;;;;;;;;;;;;;;;;;5106952;28;19920;-72
2023/10/05 06:57:00;;;;;;;;;;;;;;;;;;5089066;28;20003;-73
2023/10/05 06:59:26;;;;;;;;;;;;;;;;;;5112748;28;19931;-73
2023/10/05 07:01:52;;;;;;;;;;;;;;;;;;5092964;28;19923;-74
2023/10/05 07:04:24;;;;;;;;;;;;;;;;;;5085624;28;19912;-73
2023/10/05 07:06:50;;;;;;;;;;;;;;;;;;5112834;28;19920;-73
2023/10/05 07:09:15;;;;;;;;;;;;;;;;;;5112553;28;20306;-72
2023/10/05 07:11:41;;;;;;;;;;;;;;;;;;5112412;28;19923;-72
2023/10/05 07:14:06;;;;;;;;;;;;;;;;;;5111023;28;19931;-72
2023/10/05 07:16:32;;;;;;;;;;;;;;;;;;5112219;28;19915;-72
2023/10/05 07:18:58;;;;;;;;;;;;;;;;;;5112506;28;19920;-71
2023/10/05 07:21:23;;;;;;;;;;;;;;;;;;5112697;28;20398;-73
2023/10/05 07:23:49;;;;;;;;;;;;;;;;;;5105631;28;19920;-73
2023/10/05 07:26:14;;;;;;;;;;;;;;;;;;5095235;28;20366;-73
2023/10/05 07:28:41;;;;;;;;;;;;;;;;;;5091650;28;19916;-71
2023/10/05 07:31:06;;;;;;;;;;;;;;;;;;5094186;28;19955;-73
2023/10/05 07:33:35;;;;;;;;;;;;;;;;;;5108531;28;19996;-72
2023/10/05 07:36:02;;;;;;;;;;;;;;;;;;5100916;28;19961;-72
2023/10/05 07:38:28;;;;;;;;;;;;;;;;;;5089887;28;19927;-72
2023/10/05 07:40:53;;;;;;;;;;;;;;;;;;5099938;28;20164;-71
2023/10/05 07:43:19;;;;;;;;;;;;;;;;;;5099914;28;19934;-72
2023/10/05 07:45:45;;;;;;;;;;;;;;;;;;5092707;28;19916;-72
2023/10/05 07:48:11;;;;;;;;;;;;;;;;;;5091263;28;19920;-73
2023/10/05 07:50:37;;;;;;;;;;;;;;;;;;5091019;28;19986;-72
2023/10/05 07:53:02;;;;;;;;;;;;;;;;;;5091702;28;20444;-72
2023/10/05 07:55:28;;;;;;;;;;;;;;;;;;5091438;28;20004;-72
2023/10/05 07:57:53;;;;;;;;;;;;;;;;;;5072553;28;19919;-72
2023/10/05 08:00:20;;;;;;;;;;;;;;;;;;5091948;28;19920;-71
2023/10/05 08:02:45;;;;;;;;;;;;;;;;;;5091679;28;19916;-72
2023/10/05 08:05:15;;;;;;;;;;;;;;;;;;5089948;28;19916;-72
2023/10/05 08:07:40;;;;;;;;;;;;;;;;;;5089714;28;20010;-72
2023/10/05 08:10:06;;;;;;;;;;;;;;;;;;5071644;28;20019;-73
2023/10/05 08:12:31;;;;;;;;;;;;;;;;;;5089546;28;19955;-72
2023/10/05 08:14:57;;;;;;;;;;;;;;;;;;5089305;28;19971;-71
2023/10/05 08:17:22;;;;;;;;;;;;;;;;;;5089421;28;19948;-72
2023/10/05 08:19:47;;;;;;;;;;;;;;;;;;5090143;28;19921;-72
2023/10/05 08:22:13;;;;;;;;;;;;;;;;;;5091344;28;20011;-72
2023/10/05 08:24:38;;;;;;;;;;;;;;;;;;5090963;28;19930;-73
2023/10/05 08:27:06;;;;;;;;;;;;;;;;;;5091012;28;20018;-73
2023/10/05 08:29:32;;;;;;;;;;;;;;;;;;5090361;28;19916;-73
2023/10/05 08:31:58;;;;;;;;;;;;;;;;;;5091009;28;20287;-72
2023/10/05 08:34:25;;;;;;;;;;;;;;;;;;5090904;28;19916;-73
2023/10/05 08:36:53;;;;;;;;;;;;;;;;;;5091188;28;19913;-73
2023/10/05 08:39:24;;;;;;;;;;;;;;;;;;5090859;28;19967;-72
2023/10/05 08:41:50;;;;;;;;;;;;;;;;;;5090779;28;19966;-72
2023/10/05 08:44:28;;;;;;;;;;;;;;;;;;5072907;28;19916;-72
2023/10/05 08:46:55;;;;;;;;;;;;;;;;;;5090737;28;19916;-72
2023/10/05 08:49:21;;;;;;;;;;;;;;;;;;5090963;28;20368;-72
2023/10/05 08:51:46;;;;;;;;;;;;;;;;;;5090658;28;19920;-72
2023/10/05 08:54:13;;;;;;;;;;;;;;;;;;5090720;28;19924;-72
2023/10/05 08:56:40;;;;;;;;;;;;;;;;;;5090404;28;19916;-71
2023/10/05 08:59:07;;;;;;;;;;;;;;;;;;5090716;28;20326;-73
2023/10/05 09:01:35;;;;;;;;;;;;;;;;;;5090477;28;20428;-72
2023/10/05 09:06:38;;;;;;;;;;;;;;;;;;5090231;28;19938;-73
2023/10/05 09:11:31;;;;;;;;;;;;;;;;;;5090342;28;20007;-73
2023/10/05 09:13:58;;;;;;;;;;;;;;;;;;5090427;28;20069;-72
2023/10/05 09:16:30;;;;;;;;;;;;;;;;;;5091090;28;19922;-72
2023/10/05 09:18:55;;;;;;;;;;;;;;;;;;5090941;28;19924;-71
2023/10/05 09:21:23;;;;;;;;;;;;;;;;;;5091697;28;19923;-72
2023/10/05 09:23:48;;;;;;;;;;;;;;;;;;5090736;28;20438;-72
2023/10/05 09:26:14;;;;;;;;;;;;;;;;;;5090137;28;19912;-72
2023/10/05 09:28:51;;;;;;;;;;;;;;;;;;5090132;28;20359;-73
2023/10/05 09:31:19;;;;;;;;;;;;;;;;;;5089809;28;20398;-72
2023/10/05 09:33:44;;;;;;;;;;;;;;;;;;5089804;28;19946;-71
2023/10/05 09:36:10;;;;;;;;;;;;;;;;;;5090221;28;19920;-72
2023/10/05 09:38:38;;;;;;;;;;;;;;;;;;5089552;28;20435;-72
2023/10/05 09:41:03;;;;;;;;;;;;;;;;;;5071866;28;20010;-72
2023/10/05 09:43:28;;;;;;;;;;;;;;;;;;5089794;28;20023;-72
2023/10/05 09:45:54;;;;;;;;;;;;;;;;;;5089880;28;20379;-72
2023/10/05 09:48:19;;;;;;;;;;;;;;;;;;5089819;28;19920;-73
2023/10/05 09:50:44;;;;;;;;;;;;;;;;;;5089575;28;20283;-73
2023/10/05 09:53:11;;;;;;;;;;;;;;;;;;5087929;28;19966;-72
2023/10/05 09:55:36;;;;;;;;;;;;;;;;;;5070854;28;19923;-72
2023/10/05 09:58:05;;;;;;;;;;;;;;;;;;5088054;28;19916;-73
2023/10/05 10:00:47;;;;;;;;;;;;;;;;;;5087730;28;19923;-72
2023/10/05 10:03:14;;;;;;;;;;;;;;;;;;5088075;28;19927;-73
2023/10/05 10:05:42;;;;;;;;;;;;;;;;;;5087579;28;19916;-72
2023/10/05 10:08:09;;;;;;;;;;;;;;;;;;5088890;28;19916;-73
2023/10/05 10:10:36;;;;;;;;;;;;;;;;;;5090422;28;19916;-72
2023/10/05 10:13:10;;;;;;;;;;;;;;;;;;5090979;28;19916;-73
2023/10/05 10:15:39;;;;;;;;;;;;;;;;;;5089626;28;19946;-72
2023/10/05 10:18:14;;;;;;;;;;;;;;;;;;5090126;28;19920;-72
2023/10/05 10:20:39;;;;;;;;;;;;;;;;;;5088920;28;20291;-72
2023/10/05 10:23:05;;;;;;;;;;;;;;;;;;5089305;28;19926;-72
2023/10/05 10:25:30;;;;;;;;;;;;;;;;;;5089415;28;20032;-72
2023/10/05 10:27:57;;;;;;;;;;;;;;;;;;5089389;28;19920;-72
2023/10/05 10:30:24;;;;;;;;;;;;;;;;;;5089105;28;19959;-72
2023/10/05 10:32:49;;;;;;;;;;;;;;;;;;5089242;28;19916;-71
2023/10/05 10:35:26;;;;;;;;;;;;;;;;;;5089414;28;19927;-72
2023/10/05 10:37:54;;;;;;;;;;;;;;;;;;5089503;28;19951;-73
2023/10/05 10:42:45;;;;;;;;;;;;;;;;;;5088911;28;19923;-73
2023/10/05 10:45:12;;;;;;;;;;;;;;;;;;5088989;28;19912;-73
2023/10/05 10:47:39;;;;;;;;;;;;;;;;;;5089142;28;19916;-73
2023/10/05 10:50:16;;;;;;;;;;;;;;;;;;5088740;28;20268;-73
2023/10/05 10:52:44;;;;;;;;;;;;;;;;;;5088918;28;19980;-73
2023/10/05 10:55:16;;;;;;;;;;;;;;;;;;5088951;28;19919;-72
2023/10/05 10:57:45;;;;;;;;;;;;;;;;;;5088967;28;19920;-72
2023/10/05 11:02:56;;;;;;;;;;;;;;;;;;5088830;28;20363;-73
2023/10/05 11:05:24;;;;;;;;;;;;;;;;;;5070410;28;20291;-72
2023/10/05 11:07:50;;;;;;;;;;;;;;;;;;5089007;28;19920;-73
2023/10/05 11:10:21;;;;;;;;;;;;;;;;;;5088664;28;19965;-72
2023/10/05 11:12:53;;;;;;;;;;;;;;;;;;5088531;28;19982;-72
2023/10/05 11:15:19;;;;;;;;;;;;;;;;;;5088964;28;20255;-72
2023/10/05 11:17:46;;;;;;;;;;;;;;;;;;5070291;28;20016;-72
2023/10/05 11:20:13;;;;;;;;;;;;;;;;;;5088574;28;19920;-72
2023/10/05 11:22:42;;;;;;;;;;;;;;;;;;5088303;28;19916;-72
2023/10/05 11:25:16;;;;;;;;;;;;;;;;;;5089020;28;19920;-72
2023/10/05 11:27:42;;;;;;;;;;;;;;;;;;5089043;28;20379;-71
2023/10/05 11:30:07;;;;;;;;;;;;;;;;;;5088409;28;20001;-72
2023/10/05 11:32:33;;;;;;;;;;;;;;;;;;5090042;28;19920;-72
2023/10/05 11:34:59;;;;;;;;;;;;;;;;;;5092051;28;19916;-72
2023/10/05 11:37:25;;;;;;;;;;;;;;;;;;5074035;28;19919;-71
2023/10/05 11:39:50;;;;;;;;;;;;;;;;;;5092095;28;19920;-73
2023/10/05 11:42:16;;;;;;;;;;;;;;;;;;5091722;28;19926;-72
2023/10/05 11:44:49;;;;;;;;;;;;;;;;;;5091673;28;20019;-72
2023/10/05 11:47:16;;;;;;;;;;;;;;;;;;5091673;28;19916;-71
2023/10/05 11:49:41;;;;;;;;;;;;;;;;;;5091492;28;20359;-72
2023/10/05 11:52:11;;;;;;;;;;;;;;;;;;5091488;28;19970;-72
2023/10/05 11:54:39;;;;;;;;;;;;;;;;;;5091316;28;19916;-72
2023/10/05 11:57:05;;;;;;;;;;;;;;;;;;5091728;28;19916;-71
2023/10/05 11:59:31;;;;;;;;;;;;;;;;;;5073094;28;19943;-71
2023/10/05 12:01:56;;;;;;;;;;;;;;;;;;5091998;28;20419;-71
2023/10/05 12:04:23;;;;;;;;;;;;;;;;;;5091706;28;19962;-71
2023/10/05 12:06:58;;;;;;;;;;;;;;;;;;5091766;28;19961;-72
2023/10/05 12:09:27;;;;;;;;;;;;;;;;;;5092687;28;19916;-71
2023/10/05 12:11:54;;;;;;;;;;;;;;;;;;5092823;28;19916;-72
2023/10/05 12:14:19;;;;;;;;;;;;;;;;;;5091751;28;19941;-72
2023/10/05 12:16:45;;;;;;;;;;;;;;;;;;5090983;28;19912;-71
2023/10/05 12:19:14;;;;;;;;;;;;;;;;;;5072896;28;20356;-72
2023/10/05 12:21:40;;;;;;;;;;;;;;;;;;5091307;28;19916;-71
2023/10/05 12:24:06;;;;;;;;;;;;;;;;;;5091269;28;20183;-72
2023/10/05 12:26:32;;;;;;;;;;;;;;;;;;5090542;28;19912;-72
2023/10/05 12:28:58;;;;;;;;;;;;;;;;;;5091216;28;20275;-72
2023/10/05 12:31:24;;;;;;;;;;;;;;;;;;5091206;28;19912;-72
2023/10/05 12:33:50;;;;;;;;;;;;;;;;;;5091478;28;20269;-72
2023/10/05 12:36:16;;;;;;;;;;;;;;;;;;5090895;28;19913;-72
2023/10/05 12:38:42;;;;;;;;;;;;;;;;;;5090733;28;20508;-72
2023/10/05 12:41:13;;;;;;;;;;;;;;;;;;5090834;28;20223;-72
2023/10/05 12:43:39;;;;;;;;;;;;;;;;;;5090795;28;19923;-72
2023/10/05 12:46:10;;;;;;;;;;;;;;;;;;5073109;28;20295;-72
2023/10/05 12:48:35;;;;;;;;;;;;;;;;;;5090668;28;19916;-72
2023/10/05 12:51:05;;;;;;;;;;;;;;;;;;5097400;28;19958;-72
2023/10/05 12:53:31;;;;;;;;;;;;;;;;;;5110856;28;19916;-73
2023/10/05 12:55:56;;;;;;;;;;;;;;;;;;5111360;28;20011;-72
2023/10/05 12:58:23;;;;;;;;;;;;;;;;;;5110756;28;19923;-71
2023/10/05 13:00:49;;;;;;;;;;;;;;;;;;5109106;28;20002;-73
2023/10/05 13:03:15;;;;;;;;;;;;;;;;;;5109879;28;20019;-72
2023/10/05 13:05:43;;;;;;;;;;;;;;;;;;5096220;28;20289;-73
2023/10/05 13:08:10;;;;;;;;;;;;;;;;;;5090277;28;20283;-73
2023/10/05 13:10:37;;;;;;;;;;;;;;;;;;5090313;28;19916;-72
2023/10/05 13:13:09;;;;;;;;;;;;;;;;;;5090145;28;19927;-73
2023/10/05 13:15:35;;;;;;;;;;;;;;;;;;5090642;28;19923;-73
2023/10/05 13:18:25;;;;;;;;;;;;;;;;;;5090572;28;20283;-74
2023/10/05 13:20:49;;;;;;;;;;;;;;;;;;5089574;28;19981;-74
2023/10/05 13:23:18;;;;;;;;;;;;;;;;;;5090150;28;19923;-74
2023/10/05 13:25:44;;;;;;;;;;;;;;;;;;5072471;28;20677;-81
2023/10/05 13:28:11;;;;;;;;;;;;;;;;;;5090329;28;20005;-73
2023/10/05 13:30:41;;;;;;;;;;;;;;;;;;5090051;28;19927;-74
2023/10/05 13:33:13;;;;;;;;;;;;;;;;;;5090234;28;19924;-72
2023/10/05 13:35:40;;;;;;;;;;;;;;;;;;5090526;28;19916;-74
2023/10/05 13:38:07;;;;;;;;;;;;;;;;;;5090330;28;19939;-75
2023/10/05 13:40:34;;;;;;;;;;;;;;;;;;5089765;28;19920;-73
2023/10/05 13:43:01;;;;;;;;;;;;;;;;;;5089144;28;20470;-72
2023/10/05 13:45:28;;;;;;;;;;;;;;;;;;5089938;28;19974;-73
2023/10/05 13:47:54;;;;;;;;;;;;;;;;;;5090028;28;19912;-75
2023/10/05 13:50:22;;;;;;;;;;;;;;;;;;5089953;28;19973;-73
2023/10/05 13:52:50;;;;;;;;;;;;;;;;;;5089669;28;20368;-73
2023/10/05 13:55:19;;;;;;;;;;;;;;;;;;5089193;28;20373;-72
2023/10/05 13:57:44;;;;;;;;;;;;;;;;;;5088491;28;20015;-73
2023/10/05 14:00:18;;;;;;;;;;;;;;;;;;5071643;28;20026;-73
2023/10/05 14:02:44;;;;;;;;;;;;;;;;;;5089618;28;20432;-73
2023/10/05 14:05:09;;;;;;;;;;;;;;;;;;5089465;28;19912;-72
2023/10/05 14:07:35;;;;;;;;;;;;;;;;;;5090150;28;19923;-73
2023/10/05 14:10:04;;;;;;;;;;;;;;;;;;5092162;28;19916;-73
2023/10/05 14:12:31;;;;;;;;;;;;;;;;;;5073383;28;19916;-73
2023/10/05 14:14:57;;;;;;;;;;;;;;;;;;5089716;28;20371;-73
2023/10/05 14:17:24;;;;;;;;;;;;;;;;;;5089558;28;19938;-73
2023/10/05 14:19:50;;;;;;;;;;;;;;;;;;5089239;28;19927;-73
2023/10/05 14:22:15;;;;;;;;;;;;;;;;;;5089984;28;19916;-74
2023/10/05 14:24:45;;;;;;;;;;;;;;;;;;5100981;28;19923;-73
2023/10/05 14:27:11;;;;;;;;;;;;;;;;;;5109382;28;19916;-72
2023/10/05 14:29:38;;;;;;;;;;;;;;;;;;5109618;28;20299;-75
2023/10/05 14:32:06;;;;;;;;;;;;;;;;;;5109375;28;19920;-72
2023/10/05 14:34:35;;;;;;;;;;;;;;;;;;5109387;28;19976;-73
2023/10/05 14:37:04;;;;;;;;;;;;;;;;;;5109447;28;19916;-74
2023/10/05 14:39:33;;;;;;;;;;;;;;;;;;5109203;28;19924;-75
2023/10/05 14:42:00;;;;;;;;;;;;;;;;;;5109582;28;20362;-74
2023/10/05 14:44:28;;;;;;;;;;;;;;;;;;5110315;28;20387;-73
2023/10/05 14:46:54;;;;;;;;;;;;;;;;;;5109535;28;19968;-72
2023/10/05 14:49:23;;;;;;;;;;;;;;;;;;5109378;28;19919;-73
2023/10/05 14:51:49;;;;;;;;;;;;;;;;;;5109230;28;19923;-74
2023/10/05 14:54:16;;;;;;;;;;;;;;;;;;5109436;28;19922;-73
2023/10/05 14:56:42;;;;;;;;;;;;;;;;;;5109187;28;19920;-73
2023/10/05 14:59:08;;;;;;;;;;;;;;;;;;5109387;28;19926;-72
2023/10/05 15:01:34;;;;;;;;;;;;;;;;;;5088157;28;20367;-73
2023/10/05 15:04:01;;;;;;;;;;;;;;;;;;5107537;28;19912;-73
2023/10/05 15:06:26;;;;;;;;;;;;;;;;;;5107148;28;19969;-73
2023/10/05 15:08:52;;;;;;;;;;;;;;;;;;5110796;28;19911;-74
2023/10/05 15:11:17;;;;;;;;;;;;;;;;;;5110856;28;20267;-73
2023/10/05 15:13:43;;;;;;;;;;;;;;;;;;5092316;28;19922;-73
2023/10/05 15:16:09;;;;;;;;;;;;;;;;;;5110427;28;19916;-73
2023/10/05 15:18:35;;;;;;;;;;;;;;;;;;5110632;28;19923;-73
2023/10/05 15:21:00;;;;;;;;;;;;;;;;;;5110769;28;20468;-74
2023/10/05 15:23:27;;;;;;;;;;;;;;;;;;5110389;28;19923;-74
2023/10/05 15:25:55;;;;;;;;;;;;;;;;;;5109813;28;19927;-73
2023/10/05 15:28:21;;;;;;;;;;;;;;;;;;5110163;28;19916;-73
2023/10/05 15:30:48;;;;;;;;;;;;;;;;;;5109849;28;19926;-73
2023/10/05 15:33:14;;;;;;;;;;;;;;;;;;5110737;28;19915;-73
2023/10/05 15:35:39;;;;;;;;;;;;;;;;;;5109614;28;19927;-74
2023/10/05 15:38:08;;;;;;;;;;;;;;;;;;5110275;28;20087;-73
2023/10/05 15:40:35;;;;;;;;;;;;;;;;;;5110130;28;19923;-74
2023/10/05 15:43:01;;;;;;;;;;;;;;;;;;5110293;28;20008;-73
2023/10/05 15:45:29;;;;;;;;;;;;;;;;;;5110402;28;19969;-73
2023/10/05 15:47:54;;;;;;;;;;;;;;;;;;5109970;28;19916;-74
2023/10/05 15:50:21;;;;;;;;;;;;;;;;;;5109787;28;20256;-73
2023/10/05 15:52:48;;;;;;;;;;;;;;;;;;5109466;28;19924;-73
2023/10/05 15:55:15;;;;;;;;;;;;;;;;;;5110218;28;19920;-74
2023/10/05 15:57:41;;;;;;;;;;;;;;;;;;5110186;28;19912;-73
2023/10/05 16:00:15;;;;;;;;;;;;;;;;;;5109058;28;20789;-73
2023/10/05 16:02:40;;;;;;;;;;;;;;;;;;5109520;28;19959;-73
2023/10/05 16:05:06;;;;;;;;;;;;;;;;;;5109595;28;19975;-74
2023/10/05 16:07:32;;;;;;;;;;;;;;;;;;5091714;28;19954;-74
2023/10/05 16:10:00;;;;;;;;;;;;;;;;;;5112265;28;19937;-73
2023/10/05 16:12:25;;;;;;;;;;;;;;;;;;5111735;28;19924;-74
2023/10/05 16:14:51;;;;;;;;;;;;;;;;;;5092310;28;19965;-73
2023/10/05 16:17:16;;;;;;;;;;;;;;;;;;5109445;28;19924;-73
2023/10/05 16:19:42;;;;;;;;;;;;;;;;;;5108978;28;20390;-74
2023/10/05 16:22:12;;;;;;;;;;;;;;;;;;5109275;28;19920;-74
2023/10/05 16:24:37;;;;;;;;;;;;;;;;;;5109308;28;19927;-74
2023/10/05 16:27:03;;;;;;;;;;;;;;;;;;5109323;28;19920;-73
2023/10/05 16:29:28;;;;;;;;;;;;;;;;;;5091207;28;20413;-73
2023/10/05 16:31:54;;;;;;;;;;;;;;;;;;5109413;28;19958;-73
2023/10/05 16:34:19;;;;;;;;;;;;;;;;;;5109292;28;20341;-73
2023/10/05 16:36:46;;;;;;;;;;;;;;;;;;5108774;28;19931;-74
2023/10/05 16:39:12;;;;;;;;;;;;;;;;;;5108727;28;19969;-74
2023/10/05 16:41:38;;;;;;;;;;;;;;;;;;5101294;28;19920;-74
2023/10/05 16:44:03;;;;;;;;;;;;;;;;;;5089787;28;19964;-74
2023/10/05 16:46:28;;;;;;;;;;;;;;;;;;5070128;28;19920;-74
2023/10/05 16:48:55;;;;;;;;;;;;;;;;;;5068923;28;19920;-73
2023/10/05 16:51:20;;;;;;;;;;;;;;;;;;5088401;28;20353;-74
2023/10/05 16:53:46;;;;;;;;;;;;;;;;;;5088889;28;19923;-72
2023/10/05 16:56:11;;;;;;;;;;;;;;;;;;5088833;28;19923;-74
2023/10/05 16:58:37;;;;;;;;;;;;;;;;;;5088337;28;19920;-73
2023/10/05 17:01:04;;;;;;;;;;;;;;;;;;5086484;28;19916;-74
2023/10/05 17:03:29;;;;;;;;;;;;;;;;;;5104988;28;19955;-74
2023/10/05 17:05:55;;;;;;;;;;;;;;;;;;5107320;28;19951;-74
2023/10/05 17:08:21;;;;;;;;;;;;;;;;;;5107131;28;19938;-73
2023/10/05 17:10:47;;;;;;;;;;;;;;;;;;5107284;28;20406;-74
2023/10/05 17:13:13;;;;;;;;;;;;;;;;;;5107804;28;19959;-73
2023/10/05 17:15:38;;;;;;;;;;;;;;;;;;5107984;28;19919;-73
2023/10/05 17:18:04;;;;;;;;;;;;;;;;;;5108587;28;19966;-73